Aérodrome :
LOGIN :

S'inscrire | Disclaimer

   EN    FR    IT 

 










Légende :    VFR   VFR Marginal   IFR   IFR Intensif   IFR Très Intensif
Visi : 
Plafond : 
>= 8 km
>= 3000ft
5 à 8 km
1000 à 3000 ft
1500m à 5 km
500 à 1000 ft
800 à 1500m
200 à 500 ft
< 800m
< 200 ft
Symboles :   Orages  Brouillard  Fortes neiges  Fortes précipitations  Vent > 20 kt
SIGMETs :   Divers  Orages  Givrage  Turbulence  Onde Orograph.  Cendres Volcan.







- Altitude de l'aérodrome : 297 ft
- Code IATA : UIP
- Voir les cartes d'approche


LFRQ - Quimper Pluguffan

DERNIER METAR :
  • 280730Z AUTO 31012KT 9999 FEW013 SCT032 BKN180 04/03 Q0992 TEMPO 30017G28KT 4000 SHGSRA FEW015CB BKN020TCU

METARs EXPIRÉS :
  • 280700Z AUTO 31013KT 9999 -RA SCT016/// BKN027/// BKN039/// ///TCU 04/03 Q0991 TEMPO 30017G28KT 4000 SHGSRA FEW015CB BKN020TCU
  • 280630Z AUTO 26003KT 210V320 9999 -DZ BKN019/// BKN060/// BKN094/// ///CB 03/02 Q0990 TEMPO 30017G28KT 4000 SHGSRA
  • 280600Z AUTO 26004KT 9999 -RA FEW023/// SCT028/// BKN033/// ///TCU 04/03 Q0990 TEMPO 30017G28KT 4000 SHGSRA FEW015CB BKN020TCU
  • 280530Z AUTO 29005KT 260V320 9999 -RA BKN035/// BKN048/// BKN058/// ///TCU 04/02 Q0990 TEMPO 30017G28KT 4000 SHGSRA FEW015CB BKN020TCU
  • 280500Z AUTO 30017KT 9999 SCT026/// BKN039/// BKN064/// ///CB 04/02 Q0990
  • 280430Z AUTO 22004KT 9999 FEW021/// BKN030/// BKN047/// ///TCU 03/02 Q0990

TAF TAF LFRQ
Valide du 28 à 06h jusqu'au 28 à 15h UTC


280500Z 2806/2815 26010KT 9999 FEW021 BKN030 BKN047
TEMPO 2806/2811 30017G28KT 4000 SHGSRA FEW015CB BKN020TCU
Pas de NOTAMs connus pour ce terrain.
3 SIGMETs publiés pour la FIR Brest (LFRR) :
 
Turbulence forte
LFRR SIGMET 4 VALID 280800/281200 LFPW
LFRR BREST FIR/UIR SEV TURB FCST WI N4715 W00015 - N4630 W00015 - N4630 W00130 - N4330 W00145 - N4500 W00800 - N4900 W00800 SFC/FL080 STNR NC=
Turbulence forte
LFRR SIGMET 3 VALID 280600/281000 LFPW
LFRR BREST FIR/UIR SEV TURB FCST WI N4630 W00800 - N4800 W00800 - N4715 W00330 - N4530 W00330 FL160/280 STNR NC=
Turbulence forte
LFRR SIGMET 2 VALID 280400/280800 LFPW
LFRR BREST FIR/UIR SEV TURB FCST WI N4630 W00045 - N4630 W00130 - N4330 W00145 - N4500 W00800 - N4830 W00800 - N4830 W00445 SFC/FL060 STNR NC=



MET'MAP, la Météo Aéronautique d'un coup d'oeil ! - Copyright ORBIFLY Décembre 2007 - Disclaimer

ORBIFLY MET'MAP TEAM :

Programmation & Développement : Alexandra Zaïnal
Conception & Développement : Baudouin d'Aumeries
Co-Programmation & Développement : Marc-Olivier Méhu
Soutien technique & logistique : Manuel Goepfert

Contact : metmap@orbifly.com




SOURCES & CREDITS :

   NOAA